Time;durP1;ratioP1;P1;durP2;ratioP2;P2;SDS_P1;SDS_P2;PMS_P1;PMS_P2;Temp;Humidity;BMP_temperature;BMP_pressure;BME280_temperature;BME280_humidity;BME280_pressure;Samples;Min_cycle;Max_cycle;Signal;HPM_P1;HPM_P2
2023/01/15 00:01:48;;;;;;;11.00;5.40;;;;;;;5.81;72.29;99455.06;131182;1251;107537;-74
2023/01/15 00:04:54;;;;;;;11.60;5.70;;;;;;;5.77;71.90;99450.66;131045;1249;107557;-74
2023/01/15 00:08:01;;;;;;;11.40;5.70;;;;;;;5.73;72.09;99440.68;131078;1254;107359;-73
2023/01/15 00:11:07;;;;;;;10.30;5.10;;;;;;;5.69;72.09;99432.64;131207;1250;107430;-74
2023/01/15 00:14:12;;;;;;;10.80;5.40;;;;;;;5.65;71.60;99423.52;131175;1250;107544;-73
2023/01/15 00:17:18;;;;;;;12.00;5.70;;;;;;;5.61;71.44;99415.31;131219;1250;107474;-73
2023/01/15 00:20:23;;;;;;;12.60;5.90;;;;;;;5.56;71.75;99413.09;131098;1252;107356;-73
2023/01/15 00:30:16;;;;;;;10.90;6.40;;;;;;;5.46;71.79;99380.79;131113;1253;108435;-73
2023/01/15 00:33:22;;;;;;;13.00;6.10;;;;;;;5.43;71.62;99385.17;131304;1252;107478;-74
2023/01/15 00:36:28;;;;;;;11.40;6.30;;;;;;;5.39;71.77;99378.27;131336;1266;107244;-75
2023/01/15 00:39:34;;;;;;;11.50;6.50;;;;;;;5.36;71.33;99366.45;131312;1250;107429;-73
2023/01/15 00:42:39;;;;;;;12.80;6.60;;;;;;;5.31;71.57;99355.56;131343;1248;106783;-73
2023/01/15 00:45:45;;;;;;;10.40;5.90;;;;;;;5.27;71.47;99351.33;131426;1252;107648;-73
2023/01/15 00:48:51;;;;;;;9.90;6.60;;;;;;;5.25;71.27;99349.09;131418;1252;106679;-73
2023/01/15 00:51:56;;;;;;;12.30;6.80;;;;;;;5.23;71.40;99357.56;131064;1252;107571;-76
2023/01/15 00:55:02;;;;;;;13.10;6.80;;;;;;;5.21;71.28;99347.36;131096;1250;107418;-73
2023/01/15 00:58:08;;;;;;;12.40;6.10;;;;;;;5.19;71.56;99353.88;131378;1252;107548;-73
2023/01/15 01:01:15;;;;;;;12.50;6.50;;;;;;;5.19;71.37;99350.40;131344;1252;107476;-75
2023/01/15 01:04:21;;;;;;;13.60;6.90;;;;;;;5.20;71.45;99346.86;131207;1259;107331;-73
2023/01/15 01:07:26;;;;;;;12.40;7.00;;;;;;;5.25;71.37;99345.34;131081;1252;107526;-73
2023/01/15 01:10:32;;;;;;;11.70;6.80;;;;;;;5.31;71.33;99342.14;131095;1252;107429;-73
2023/01/15 01:13:38;;;;;;;12.30;6.80;;;;;;;5.36;71.22;99329.22;131347;1252;105855;-76
2023/01/15 01:16:44;;;;;;;11.80;7.00;;;;;;;5.39;71.31;99318.54;131246;1252;107510;-73
2023/01/15 01:19:49;;;;;;;14.30;7.10;;;;;;;5.40;71.12;99320.05;131108;1252;106925;-73
2023/01/15 01:22:55;;;;;;;12.10;7.00;;;;;;;5.38;70.92;99318.23;131166;1253;108690;-73
2023/01/15 01:26:01;;;;;;;14.40;6.90;;;;;;;5.34;71.02;99310.50;131178;1252;107528;-73
2023/01/15 01:29:06;;;;;;;13.40;7.30;;;;;;;5.30;71.03;99307.36;131270;1253;106842;-73
2023/01/15 01:32:12;;;;;;;13.20;7.20;;;;;;;5.25;70.92;99300.39;131139;1252;107476;-74
2023/01/15 01:35:18;;;;;;;12.40;6.60;;;;;;;5.23;71.14;99294.30;131105;1248;107547;-73
2023/01/15 01:38:24;;;;;;;13.20;6.80;;;;;;;5.19;71.11;99285.84;131134;1252;107513;-73
2023/01/15 01:41:30;;;;;;;13.30;7.40;;;;;;;5.13;71.18;99276.34;131231;1252;108586;-73
2023/01/15 01:45:01;;;;;;;12.50;7.30;;;;;;;5.05;71.11;99265.02;131261;1252;106990;-73
2023/01/15 01:48:08;;;;;;;13.10;6.90;;;;;;;5.00;71.02;99256.77;131104;1253;108168;-74
2023/01/15 01:51:14;;;;;;;14.10;7.20;;;;;;;4.94;71.33;99259.00;131072;1250;106469;-74
2023/01/15 01:54:22;;;;;;;14.40;7.10;;;;;;;4.89;71.04;99262.10;131077;1253;107496;-74
2023/01/15 01:57:28;;;;;;;14.70;7.70;;;;;;;4.87;71.30;99262.46;131127;1252;108658;-74
2023/01/15 02:00:38;;;;;;;12.00;6.90;;;;;;;4.87;71.33;99260.35;131144;1252;107493;-74
2023/01/15 02:03:45;;;;;;;13.10;7.50;;;;;;;4.85;71.28;99257.17;131117;1253;107746;-75
2023/01/15 02:06:51;;;;;;;12.20;6.90;;;;;;;4.83;71.49;99266.07;131112;1252;107377;-75
2023/01/15 02:09:57;;;;;;;11.80;7.00;;;;;;;4.81;71.26;99260.45;131096;1252;107801;-74
2023/01/15 02:13:10;;;;;;;13.20;7.10;;;;;;;4.87;71.48;99262.34;131236;1253;107550;-75
2023/01/15 02:16:21;;;;;;;14.10;7.20;;;;;;;4.97;71.39;99255.45;131426;1252;107509;-74
2023/01/15 02:19:39;;;;;;;15.00;7.60;;;;;;;5.07;71.13;99250.54;131184;1250;107211;-73
2023/01/15 02:22:59;;;;;;;14.40;7.50;;;;;;;5.16;71.29;99255.11;131416;1252;107396;-73
2023/01/15 02:26:26;;;;;;;12.10;7.20;;;;;;;5.20;71.00;99242.16;131211;1248;108486;-73
2023/01/15 02:29:39;;;;;;;13.90;7.40;;;;;;;5.23;71.05;99212.95;131386;1248;107652;-73
2023/01/15 02:32:50;;;;;;;14.20;7.00;;;;;;;5.23;70.72;99196.71;131115;1252;108624;-76
2023/01/15 02:35:59;;;;;;;11.00;6.70;;;;;;;5.22;70.71;99201.61;131112;1252;108724;-73
2023/01/15 02:39:11;;;;;;;12.70;6.80;;;;;;;5.20;70.88;99197.56;131209;1250;107548;-73
2023/01/15 02:42:20;;;;;;;12.00;6.90;;;;;;;5.20;70.83;99189.23;131211;1252;107611;-73
2023/01/15 02:45:30;;;;;;;11.00;6.50;;;;;;;5.18;70.83;99179.60;131215;1248;106276;-73
2023/01/15 02:48:46;;;;;;;11.90;6.10;;;;;;;5.16;71.01;99169.55;131031;1252;107470;-74
2023/01/15 02:51:57;;;;;;;10.60;5.60;;;;;;;5.15;70.88;99173.90;131214;1250;107251;-75
2023/01/15 02:55:07;;;;;;;11.90;6.40;;;;;;;5.12;70.90;99175.02;131342;1264;108120;-74
2023/01/15 02:58:20;;;;;;;9.60;5.80;;;;;;;5.11;70.89;99171.80;131349;1252;107543;-73
2023/01/15 03:01:30;;;;;;;9.10;5.60;;;;;;;5.10;70.80;99166.24;131513;1252;107430;-74
2023/01/15 03:04:41;;;;;;;11.30;5.70;;;;;;;5.09;71.12;99166.65;131329;1252;107506;-75
2023/01/15 03:07:51;;;;;;;9.30;5.40;;;;;;;5.11;70.84;99166.34;131099;1252;107494;-74
2023/01/15 03:11:05;;;;;;;9.90;5.30;;;;;;;5.10;70.88;99161.86;131158;1252;107551;-74
2023/01/15 03:14:21;;;;;;;9.50;5.30;;;;;;;5.08;70.69;99148.95;131133;1254;107564;-74
2023/01/15 03:17:37;;;;;;;9.20;5.50;;;;;;;5.06;70.63;99141.25;131075;1252;107399;-74
2023/01/15 03:20:49;;;;;;;9.90;5.10;;;;;;;5.06;70.56;99134.40;131329;1252;107462;-74
2023/01/15 03:23:54;;;;;;;;;;;;;;;5.05;70.51;99125.75;131115;1253;107550;-74
2023/01/15 03:27:03;;;;;;;11.20;4.80;;;;;;;5.05;70.36;99118.61;131327;1252;107534;-74
2023/01/15 03:30:13;;;;;;;7.40;4.40;;;;;;;5.04;70.42;99105.86;131366;1252;106935;-74
2023/01/15 03:33:19;;;;;;;7.30;4.30;;;;;;;5.03;70.63;99102.16;131344;1253;107588;-74
2023/01/15 03:36:25;;;;;;;8.10;4.40;;;;;;;5.03;70.44;99094.09;131295;1263;107352;-74
2023/01/15 03:39:33;;;;;;;9.30;4.20;;;;;;;5.04;70.56;99090.84;131371;1253;107438;-74
2023/01/15 03:43:39;;;;;;;8.20;4.30;;;;;;;5.10;70.17;99090.08;131215;1253;108644;-74
2023/01/15 03:46:42;;;;;;;8.20;4.30;;;;;;;5.19;70.20;99077.81;131328;1253;108615;-75
2023/01/15 03:49:57;;;;;;;7.70;4.30;;;;;;;5.26;70.03;99084.81;131530;1256;107415;-74
2023/01/15 03:53:15;;;;;;;8.30;4.50;;;;;;;5.29;69.97;99085.83;131443;1247;107812;-74
2023/01/15 03:56:35;;;;;;;6.90;4.10;;;;;;;5.29;69.89;99080.30;131349;1253;107547;-74
2023/01/15 03:59:48;;;;;;;8.40;4.30;;;;;;;5.31;70.10;99080.30;131425;1253;107446;-73
2023/01/15 04:02:57;;;;;;;7.60;4.40;;;;;;;5.31;69.80;99075.57;131214;1253;107494;-74
2023/01/15 04:06:06;;;;;;;7.90;4.60;;;;;;;5.29;69.61;99064.64;131442;1252;107460;-73
2023/01/15 04:09:14;;;;;;;7.20;4.50;;;;;;;5.27;69.91;99053.58;131353;1253;108683;-73
2023/01/15 04:12:22;;;;;;;7.50;3.80;;;;;;;5.24;69.60;99030.08;131365;1254;107516;-74
2023/01/15 04:15:28;;;;;;;6.80;4.40;;;;;;;5.20;69.53;99033.77;131407;1247;107491;-74
2023/01/15 04:18:33;;;;;;;6.40;3.90;;;;;;;5.18;69.62;99029.55;131392;1253;107554;-74
2023/01/15 04:21:39;;;;;;;6.90;4.00;;;;;;;5.18;69.91;99038.21;131286;1253;106471;-74
2023/01/15 04:24:44;;;;;;;7.70;4.60;;;;;;;5.21;69.86;99035.49;131377;1247;107411;-73
2023/01/15 04:27:50;;;;;;;7.80;4.00;;;;;;;5.22;69.93;99039.55;131315;1248;107388;-73
2023/01/15 04:30:58;;;;;;;7.00;3.90;;;;;;;5.24;69.78;99037.09;131321;1253;107418;-74
2023/01/15 04:34:04;;;;;;;8.50;4.00;;;;;;;5.24;69.67;99028.12;131263;1253;107355;-74
2023/01/15 04:37:10;;;;;;;7.20;4.10;;;;;;;5.23;69.74;99025.23;131350;1250;107652;-74
2023/01/15 04:46:58;;;;;;;5.80;3.50;;;;;;;5.25;69.56;99020.58;131103;1250;107389;-74
2023/01/15 04:50:04;;;;;;;7.00;4.10;;;;;;;5.27;69.38;99008.20;131311;1252;107548;-73
2023/01/15 04:53:10;;;;;;;6.70;3.90;;;;;;;5.29;69.50;98999.39;131334;1252;108725;-73
2023/01/15 04:56:16;;;;;;;6.40;3.80;;;;;;;5.32;69.54;98995.60;131277;1250;108628;-73
2023/01/15 04:59:23;;;;;;;6.90;3.90;;;;;;;5.34;69.69;98994.54;131317;1252;106541;-74
2023/01/15 05:02:28;;;;;;;6.80;4.00;;;;;;;5.37;69.72;98993.21;131122;1254;106563;-74
2023/01/15 05:05:35;;;;;;;6.40;3.60;;;;;;;5.37;69.57;98992.23;131090;1252;106398;-74
2023/01/15 05:08:40;;;;;;;6.90;3.70;;;;;;;5.39;69.42;98991.20;131229;1250;107647;-73
2023/01/15 05:11:46;;;;;;;6.30;4.00;;;;;;;5.42;69.45;98993.16;131269;1250;107347;-73
2023/01/15 05:14:52;;;;;;;6.20;3.70;;;;;;;5.44;69.35;98995.48;131258;1254;108673;-75
2023/01/15 05:17:57;;;;;;;6.60;3.50;;;;;;;5.45;69.49;98988.29;131379;1250;107473;-74
2023/01/15 05:21:03;;;;;;;7.90;4.10;;;;;;;5.47;69.68;98984.77;131247;1252;108656;-74
2023/01/15 05:24:12;;;;;;;6.10;3.40;;;;;;;5.49;69.69;98984.34;131341;1252;107521;-74
2023/01/15 05:27:18;;;;;;;6.40;3.60;;;;;;;5.51;69.25;98976.98;131108;1254;107769;-74
2023/01/15 05:30:23;;;;;;;6.70;3.60;;;;;;;5.51;69.18;98972.41;131343;1248;108558;-74
2023/01/15 05:33:29;;;;;;;5.60;3.70;;;;;;;5.50;69.38;98968.73;131184;1254;107408;-74
2023/01/15 05:36:36;;;;;;;5.70;3.40;;;;;;;5.53;69.45;98960.58;131149;1250;109359;-74
2023/01/15 05:39:42;;;;;;;9.50;6.20;;;;;;;5.54;69.37;98954.47;131191;1250;106417;-73
2023/01/15 05:42:47;;;;;;;6.90;4.20;;;;;;;5.54;69.42;98951.26;131223;1252;107254;-73
2023/01/15 05:45:53;;;;;;;7.30;3.90;;;;;;;5.56;69.38;98944.43;131152;1252;107262;-74
2023/01/15 05:49:03;;;;;;;10.30;4.80;;;;;;;5.57;69.41;98940.59;131169;1252;107623;-74
2023/01/15 05:52:08;;;;;;;7.10;3.90;;;;;;;5.59;69.61;98936.00;131352;1250;108764;-74
2023/01/15 05:55:14;;;;;;;7.10;4.00;;;;;;;5.60;69.61;98933.41;131356;1252;107428;-73
2023/01/15 05:58:19;;;;;;;6.10;3.70;;;;;;;5.62;69.83;98930.39;131258;1252;108629;-74
2023/01/15 06:01:25;;;;;;;6.30;3.70;;;;;;;5.63;69.69;98924.48;131102;1252;107535;-74
2023/01/15 06:04:30;;;;;;;6.40;3.10;;;;;;;5.66;69.82;98918.35;131312;1252;105908;-73
2023/01/15 06:07:36;;;;;;;6.90;3.50;;;;;;;5.71;70.00;98912.66;131480;1252;107581;-74
2023/01/15 06:10:44;;;;;;;10.60;7.00;;;;;;;5.80;70.05;98905.23;131296;1252;107622;-74
2023/01/15 06:13:49;;;;;;;17.40;11.80;;;;;;;5.88;69.92;98903.70;131115;1252;107480;-74
2023/01/15 06:16:55;;;;;;;12.60;7.30;;;;;;;5.95;69.97;98907.11;131260;1252;106480;-74
2023/01/15 06:20:01;;;;;;;11.50;6.20;;;;;;;5.98;69.93;98907.30;131262;1257;107415;-74
2023/01/15 06:23:06;;;;;;;7.70;4.50;;;;;;;5.99;70.21;98901.02;131189;1250;107539;-74
2023/01/15 06:26:15;;;;;;;9.00;5.50;;;;;;;5.98;69.80;98894.66;131145;1250;107481;-74
2023/01/15 06:29:21;;;;;;;21.50;11.50;;;;;;;5.98;70.08;98895.88;131273;1253;107541;-73
2023/01/15 06:32:27;;;;;;;10.40;5.50;;;;;;;5.98;70.08;98892.34;131089;1251;107482;-73
2023/01/15 06:35:32;;;;;;;8.60;5.20;;;;;;;5.97;70.08;98891.95;131279;1252;108666;-73
2023/01/15 06:38:38;;;;;;;12.70;8.00;;;;;;;5.97;69.97;98889.86;131062;1252;106836;-73
2023/01/15 06:48:33;;;;;;;6.20;3.80;;;;;;;5.98;70.14;98888.30;131239;1250;106339;-73
2023/01/15 06:51:39;;;;;;;8.30;4.80;;;;;;;5.98;70.41;98888.60;131462;1250;107343;-73
2023/01/15 06:54:44;;;;;;;10.20;5.80;;;;;;;6.01;70.46;98891.20;131370;1252;107545;-74
2023/01/15 06:57:50;;;;;;;9.70;5.30;;;;;;;6.02;70.43;98889.84;131372;1248;107578;-74
2023/01/15 07:00:56;;;;;;;10.00;4.70;;;;;;;6.05;70.71;98891.15;131376;1264;107497;-75
2023/01/15 07:04:01;;;;;;;14.40;6.70;;;;;;;6.10;70.86;98883.30;131460;1252;108771;-75
2023/01/15 07:07:07;;;;;;;12.20;5.80;;;;;;;6.20;70.60;98884.08;131408;1253;107658;-75
2023/01/15 07:10:13;;;;;;;7.40;4.50;;;;;;;6.30;70.84;98883.25;131409;1252;107525;-75
2023/01/15 07:13:19;;;;;;;6.30;3.80;;;;;;;6.39;70.50;98881.10;131387;1253;108542;-75
2023/01/15 07:16:27;;;;;;;11.10;6.20;;;;;;;6.46;71.07;98877.35;131458;1252;107488;-76
2023/01/15 07:19:33;;;;;;;8.30;4.50;;;;;;;6.52;70.84;98869.16;131354;1252;107406;-76
2023/01/15 07:22:38;;;;;;;7.60;4.70;;;;;;;6.54;71.08;98868.40;131203;1252;107258;-74
2023/01/15 07:25:44;;;;;;;6.20;3.40;;;;;;;6.56;71.14;98864.26;131306;1250;106383;-73
2023/01/15 07:28:50;;;;;;;15.70;7.80;;;;;;;6.58;71.14;98868.14;131278;1250;107598;-76
2023/01/15 07:31:56;;;;;;;12.60;6.00;;;;;;;6.59;71.42;98869.24;131239;1251;107364;-76
2023/01/15 07:35:01;;;;;;;23.00;9.20;;;;;;;6.60;71.59;98868.84;131111;1252;107518;-75
2023/01/15 07:38:07;;;;;;;20.10;7.80;;;;;;;6.61;71.65;98867.48;131402;1252;107511;-76
2023/01/15 07:51:22;;;;;;;30.20;12.00;;;;;;;6.84;72.06;98873.88;131208;1252;107355;-88
2023/01/15 07:54:28;;;;;;;170.90;53.60;;;;;;;6.93;72.15;98874.02;131126;1261;108681;-73
2023/01/15 07:57:34;;;;;;;36.70;12.70;;;;;;;7.00;72.32;98869.85;131265;1253;107451;-74
2023/01/15 08:00:39;;;;;;;64.70;24.50;;;;;;;7.03;72.19;98870.75;131121;1252;107409;-74
2023/01/15 08:03:45;;;;;;;20.90;8.70;;;;;;;7.05;72.34;98867.86;131191;1253;105663;-76
2023/01/15 08:06:50;;;;;;;16.40;7.20;;;;;;;7.07;72.88;98869.66;131208;1252;106699;-74
2023/01/15 08:09:56;;;;;;;8.10;4.60;;;;;;;7.04;73.19;98865.52;131076;1254;107496;-74
2023/01/15 08:16:24;;;;;;;6.90;4.00;;;;;;;7.02;73.41;98862.36;131067;1253;107503;-72
2023/01/15 08:19:30;;;;;;;8.60;5.40;;;;;;;7.02;73.45;98854.27;131057;1254;108719;-73
2023/01/15 08:22:37;;;;;;;5.80;3.70;;;;;;;7.05;73.58;98853.02;131154;1252;107613;-75
2023/01/15 08:25:42;;;;;;;6.20;4.30;;;;;;;7.11;73.91;98854.54;131281;1252;107373;-73
2023/01/15 08:28:48;;;;;;;7.40;4.50;;;;;;;7.17;74.05;98850.23;131086;1250;107524;-73
2023/01/15 08:31:53;;;;;;;6.60;4.10;;;;;;;7.19;73.83;98847.33;131260;1253;107244;-73
2023/01/15 08:34:59;;;;;;;6.10;4.00;;;;;;;7.20;73.90;98850.04;132691;1252;108636;-73
2023/01/15 08:38:08;;;;;;;5.60;3.90;;;;;;;7.21;74.13;98850.63;131361;1253;107495;-72
2023/01/15 08:41:14;;;;;;;6.50;3.90;;;;;;;7.19;73.77;98847.48;131357;1253;106765;-72
2023/01/15 08:44:20;;;;;;;7.60;3.90;;;;;;;7.16;74.22;98845.92;131265;1252;107386;-73
2023/01/15 08:47:26;;;;;;;6.50;4.00;;;;;;;7.14;74.57;98845.27;131179;1252;107546;-72
2023/01/15 08:50:31;;;;;;;7.00;3.90;;;;;;;7.09;74.29;98843.23;131345;1251;107515;-72
2023/01/15 08:53:37;;;;;;;12.00;7.30;;;;;;;7.10;74.78;98847.11;131146;1253;107603;-72
2023/01/15 08:56:43;;;;;;;7.70;4.40;;;;;;;7.12;74.90;98849.17;131294;1254;106448;-72
2023/01/15 08:59:49;;;;;;;7.60;4.00;;;;;;;7.17;75.21;98849.73;131247;1254;107384;-73
2023/01/15 09:02:55;;;;;;;18.20;8.60;;;;;;;7.19;75.04;98849.44;131171;1252;108512;-72
2023/01/15 09:06:02;;;;;;;13.40;5.70;;;;;;;7.21;75.36;98855.20;131061;1252;107563;-72
2023/01/15 09:09:07;;;;;;;22.00;8.90;;;;;;;7.20;75.60;98856.05;131342;1258;107520;-72
2023/01/15 09:12:14;;;;;;;21.60;10.10;;;;;;;7.17;76.08;98855.14;131137;1261;107496;-72
2023/01/15 09:15:19;;;;;;;103.40;35.60;;;;;;;7.14;76.13;98852.69;131276;1253;107594;-72
2023/01/15 09:18:25;;;;;;;41.10;16.30;;;;;;;7.13;76.26;98854.02;131288;1261;108663;-72
2023/01/15 09:21:31;;;;;;;16.00;7.60;;;;;;;7.17;76.14;98854.25;131050;1262;106556;-73
2023/01/15 09:24:36;;;;;;;13.20;7.10;;;;;;;7.24;76.32;98848.38;131161;1253;106620;-72
2023/01/15 09:27:42;;;;;;;29.00;13.60;;;;;;;7.30;76.04;98843.96;131190;1261;107530;-72
2023/01/15 09:30:48;;;;;;;17.10;9.30;;;;;;;7.36;76.40;98846.84;131053;1253;107879;-73
2023/01/15 09:33:53;;;;;;;49.80;24.80;;;;;;;7.40;76.41;98849.10;131133;1252;108645;-73
2023/01/15 09:36:59;;;;;;;13.10;6.60;;;;;;;7.44;76.53;98852.02;131063;1261;107451;-72
2023/01/15 09:40:07;;;;;;;10.20;5.80;;;;;;;7.46;76.88;98844.70;131073;1253;107486;-72
2023/01/15 09:43:27;;;;;;;14.80;7.60;;;;;;;7.47;76.61;98843.55;131055;1253;107599;-72
2023/01/15 09:46:42;;;;;;;11.70;6.20;;;;;;;7.50;76.63;98841.36;131076;1253;107496;-72
2023/01/15 09:50:15;;;;;;;23.10;13.20;;;;;;;7.57;76.26;98843.14;131095;1253;106443;-72
2023/01/15 09:53:34;;;;;;;8.70;4.40;;;;;;;7.70;76.04;98833.95;131151;1253;107434;-72
2023/01/15 09:56:40;;;;;;;8.30;4.90;;;;;;;7.76;75.62;98829.42;131109;1252;107406;-72
2023/01/15 09:59:49;;;;;;;8.30;5.40;;;;;;;7.77;75.40;98820.75;131067;1261;106586;-72
2023/01/15 10:03:03;;;;;;;9.80;5.50;;;;;;;7.76;75.36;98820.04;131045;1253;107613;-73
2023/01/15 10:06:16;;;;;;;6.90;4.40;;;;;;;7.73;75.65;98813.64;131084;1252;107421;-73
2023/01/15 10:09:30;;;;;;;6.40;4.30;;;;;;;7.65;75.80;98810.31;131189;1255;107469;-72
2023/01/15 10:12:39;;;;;;;10.70;6.60;;;;;;;7.56;76.11;98806.88;131101;1252;107496;-72
2023/01/15 10:15:48;;;;;;;7.00;4.10;;;;;;;7.48;76.23;98802.91;131212;1252;108120;-72
2023/01/15 10:18:56;;;;;;;11.30;6.90;;;;;;;7.43;76.41;98794.70;131307;1255;107399;-72
2023/01/15 10:22:11;;;;;;;9.00;4.40;;;;;;;7.41;76.48;98790.55;131309;1263;107376;-72
2023/01/15 10:25:24;;;;;;;8.50;4.40;;;;;;;7.41;76.56;98788.32;131106;1261;107243;-72
2023/01/15 10:28:32;;;;;;;7.60;4.80;;;;;;;7.40;76.34;98783.61;131218;1261;106567;-73
2023/01/15 10:31:50;;;;;;;9.60;6.30;;;;;;;7.41;76.25;98782.29;131190;1254;107250;-72
2023/01/15 10:35:18;;;;;;;6.70;4.20;;;;;;;7.39;76.12;98785.71;131098;1261;107180;-72
2023/01/15 10:38:32;;;;;;;7.50;5.00;;;;;;;7.35;75.94;98784.41;131282;1254;107458;-72
2023/01/15 10:41:50;;;;;;;5.80;3.60;;;;;;;7.29;75.61;98783.30;131055;1253;107537;-72
2023/01/15 10:45:01;;;;;;;9.50;5.10;;;;;;;7.27;75.95;98776.61;131069;1258;107456;-72
2023/01/15 10:48:13;;;;;;;26.20;9.00;;;;;;;7.29;75.83;98772.82;131098;1263;107573;-72
2023/01/15 10:51:23;;;;;;;11.60;5.60;;;;;;;7.32;75.87;98770.77;131212;1259;108660;-72
2023/01/15 10:54:34;;;;;;;81.20;25.50;;;;;;;7.35;75.70;98769.38;131205;1252;107419;-74
2023/01/15 10:57:49;;;;;;;10.90;5.10;;;;;;;7.36;75.52;98764.95;131046;1253;107199;-72
2023/01/15 11:01:00;;;;;;;102.60;32.00;;;;;;;7.36;75.40;98761.33;131117;1261;107459;-72
2023/01/15 11:04:07;;;;;;;18.80;7.40;;;;;;;7.37;75.34;98760.64;131217;1261;107385;-72
2023/01/15 11:07:14;;;;;;;22.10;8.80;;;;;;;7.37;75.52;98758.19;131149;1252;107454;-72
2023/01/15 11:10:23;;;;;;;90.60;30.70;;;;;;;7.38;75.37;98762.86;131125;1252;107567;-72
2023/01/15 11:20:30;;;;;;;140.40;43.20;;;;;;;7.35;75.25;98747.45;131109;1255;106093;-72
2023/01/15 11:23:37;;;;;;;12.70;6.00;;;;;;;7.40;75.19;98745.77;131122;1254;107229;-72
2023/01/15 11:26:50;;;;;;;28.50;11.00;;;;;;;7.45;74.91;98737.92;131184;1253;107236;-72
2023/01/15 11:29:58;;;;;;;29.60;11.70;;;;;;;7.50;74.67;98737.09;131303;1253;107502;-72
2023/01/15 11:33:05;;;;;;;25.50;11.00;;;;;;;7.54;74.39;98734.02;131127;1252;107596;-73
2023/01/15 11:36:23;;;;;;;16.10;7.10;;;;;;;7.56;74.36;98733.95;131368;1253;107573;-72
2023/01/15 11:39:30;;;;;;;18.40;8.60;;;;;;;7.57;74.11;98737.36;131273;1254;108412;-72
2023/01/15 11:52:50;;;;;;;17.90;9.80;;;;;;;7.58;73.59;98728.20;131491;1252;107636;-72
2023/01/15 11:56:00;;;;;;;11.50;5.50;;;;;;;7.58;73.47;98721.36;131395;1254;107366;-73
2023/01/15 11:59:12;;;;;;;8.70;4.70;;;;;;;7.57;73.47;98717.23;131530;1253;105466;-73
2023/01/15 12:02:31;;;;;;;7.60;4.70;;;;;;;7.56;73.45;98719.05;131398;1253;107611;-72
2023/01/15 12:05:37;;;;;;;7.80;4.40;;;;;;;7.56;73.39;98714.67;131441;1253;107451;-73
2023/01/15 12:08:52;;;;;;;8.10;4.60;;;;;;;7.55;73.25;98713.52;131183;1252;107466;-75
2023/01/15 12:12:06;;;;;;;9.20;4.70;;;;;;;7.57;73.30;98712.58;131088;1253;106512;-73
2023/01/15 12:15:38;;;;;;;8.50;4.80;;;;;;;7.62;73.38;98713.16;131405;1253;107375;-73
2023/01/15 12:18:56;;;;;;;18.00;8.10;;;;;;;7.70;73.25;98713.98;131307;1253;107824;-74
2023/01/15 12:22:17;;;;;;;20.00;9.40;;;;;;;7.76;72.51;98712.03;131336;1248;108354;-73
2023/01/15 12:25:32;;;;;;;17.80;8.10;;;;;;;7.78;72.68;98712.59;131516;1254;108595;-72
2023/01/15 12:28:40;;;;;;;11.80;6.40;;;;;;;7.80;72.70;98708.80;131248;1248;107426;-73
2023/01/15 12:31:52;;;;;;;36.50;16.00;;;;;;;7.81;72.06;98704.98;131312;1254;108610;-72
2023/01/15 12:35:03;;;;;;;21.80;9.10;;;;;;;7.79;72.35;98708.53;131323;1253;107396;-72
2023/01/15 12:38:18;;;;;;;21.90;9.90;;;;;;;7.78;72.33;98711.52;131094;1253;107462;-73
2023/01/15 12:44:59;;;;;;;17.40;8.20;;;;;;;7.77;72.18;98714.45;131461;1261;105965;-73
2023/01/15 12:45:03;;;;;;;18.30;8.50;;;;;;;7.75;72.22;98716.05;131180;1253;107617;-73
2023/01/15 12:48:15;;;;;;;12.00;5.90;;;;;;;7.74;72.08;98710.85;131198;1248;107375;-78
2023/01/15 12:51:22;;;;;;;;;;;;;;;7.73;72.03;98711.11;131337;1261;107611;-72
2023/01/15 12:54:35;;;;;;;12.90;6.70;;;;;;;7.71;72.21;98716.00;131355;1248;106765;-71
2023/01/15 12:57:44;;;;;;;24.80;14.30;;;;;;;7.70;71.85;98711.92;131371;1254;107516;-73
2023/01/15 13:00:51;;;;;;;17.00;8.60;;;;;;;7.69;72.13;98711.93;131321;1248;107525;-72
2023/01/15 13:04:06;;;;;;;14.00;7.10;;;;;;;7.70;71.98;98718.56;132395;1247;107577;-74
2023/01/15 13:07:22;;;;;;;10.80;6.70;;;;;;;7.70;71.73;98714.84;131644;1253;107449;-74
2023/01/15 13:10:35;;;;;;;10.90;6.50;;;;;;;7.70;71.88;98721.09;131303;1254;107474;-74
2023/01/15 13:13:56;;;;;;;10.70;6.00;;;;;;;7.70;72.10;98721.13;131387;1254;107922;-76
2023/01/15 13:17:11;;;;;;;10.30;5.70;;;;;;;7.70;71.69;98717.70;131476;1251;107250;-73
2023/01/15 13:20:31;;;;;;;10.80;5.90;;;;;;;7.70;71.82;98719.13;131413;1253;107366;-74
2023/01/15 13:23:53;;;;;;;11.70;5.90;;;;;;;7.70;71.62;98721.29;131680;1251;106647;-73
2023/01/15 13:27:23;;;;;;;10.10;6.10;;;;;;;7.70;71.75;98721.76;131348;1253;107451;-74
2023/01/15 13:30:51;;;;;;;10.00;5.70;;;;;;;7.69;71.75;98726.83;131774;1252;107601;-76
2023/01/15 13:34:00;;;;;;;9.30;5.30;;;;;;;7.69;71.63;98731.52;131176;1254;107438;-74
2023/01/15 13:37:15;;;;;;;11.00;5.50;;;;;;;7.68;71.77;98733.84;131142;1254;107411;-73
2023/01/15 13:40:28;;;;;;;11.80;5.90;;;;;;;7.72;71.68;98733.39;131324;1252;107529;-74
2023/01/15 13:43:35;;;;;;;;;;;;;;;7.79;71.50;98736.84;131216;1262;108704;-73
2023/01/15 13:46:41;;;;;;;9.70;5.10;;;;;;;7.84;71.65;98736.98;131158;1248;107321;-74
2023/01/15 13:49:51;;;;;;;8.40;4.80;;;;;;;7.87;71.50;98737.38;131268;1248;108119;-74
2023/01/15 13:53:05;;;;;;;9.30;5.30;;;;;;;7.89;71.50;98744.98;131394;1251;107822;-73
2023/01/15 13:56:14;;;;;;;10.40;5.30;;;;;;;7.89;71.40;98751.84;131390;1253;107498;-74
2023/01/15 13:59:40;;;;;;;9.10;5.50;;;;;;;7.88;71.52;98761.38;131412;1251;107440;-74
2023/01/15 14:02:53;;;;;;;9.40;5.50;;;;;;;7.86;71.52;98768.26;131258;1251;107971;-72
2023/01/15 14:06:01;;;;;;;10.00;5.40;;;;;;;7.86;71.47;98773.59;131310;1253;108754;-72
2023/01/15 14:09:09;;;;;;;12.10;6.70;;;;;;;7.84;71.34;98773.87;131364;1252;107498;-72
2023/01/15 14:12:34;;;;;;;81.00;37.80;;;;;;;7.80;71.43;98773.69;131141;1254;107386;-73
2023/01/15 14:15:53;;;;;;;22.10;9.60;;;;;;;7.78;71.42;98773.55;131129;1262;107598;-71
2023/01/15 14:19:13;;;;;;;28.00;14.20;;;;;;;7.77;71.30;98768.05;131129;1248;108666;-72
2023/01/15 14:22:41;;;;;;;14.30;7.40;;;;;;;7.75;71.38;98763.81;131254;1248;107481;-73
2023/01/15 14:26:00;;;;;;;15.60;8.50;;;;;;;7.74;71.26;98766.92;131310;1251;107501;-75
2023/01/15 14:29:27;;;;;;;16.00;9.10;;;;;;;7.72;71.25;98769.65;131434;1252;110350;-74
2023/01/15 14:32:52;;;;;;;20.40;11.00;;;;;;;7.71;71.19;98773.75;131345;1253;107548;-72
2023/01/15 14:36:07;;;;;;;21.20;12.10;;;;;;;7.70;71.34;98775.24;131305;1248;107409;-75
2023/01/15 14:39:27;;;;;;;17.30;8.70;;;;;;;7.69;71.01;98768.65;131446;1251;107365;-77
2023/01/15 14:46:15;;;;;;;28.10;11.80;;;;;;;7.67;71.21;98767.63;131020;1253;173176;-76
2023/01/15 14:49:30;;;;;;;56.90;27.10;;;;;;;7.65;70.94;98760.77;131376;1253;107475;-76
2023/01/15 14:52:36;;;;;;;239.30;107.50;;;;;;;7.63;70.98;98775.39;131288;1254;106164;-76
2023/01/15 14:55:47;;;;;;;55.30;26.90;;;;;;;7.63;71.13;98785.51;131264;1248;107521;-73
2023/01/15 14:58:59;;;;;;;16.80;9.70;;;;;;;7.62;71.11;98778.75;131067;1254;107235;-72
2023/01/15 15:02:06;;;;;;;;;;;;;;;7.63;70.95;98777.41;131148;1253;107534;-72
2023/01/15 15:05:15;;;;;;;15.60;8.60;;;;;;;7.66;71.27;98778.19;131025;1260;107453;-72
2023/01/15 15:08:25;;;;;;;10.30;5.90;;;;;;;7.73;71.17;98773.88;131230;1254;107988;-72
2023/01/15 15:15:11;;;;;;;8.70;5.30;;;;;;;7.90;71.12;98772.82;131246;1251;106816;-73
2023/01/15 15:18:28;;;;;;;8.80;5.30;;;;;;;7.95;71.14;98783.05;131217;1254;107391;-73
2023/01/15 15:21:37;;;;;;;10.40;5.80;;;;;;;7.96;71.02;98782.59;131260;1248;107242;-74
2023/01/15 15:24:48;;;;;;;9.00;5.50;;;;;;;7.96;71.20;98772.16;131593;1248;106620;-72
2023/01/15 15:28:05;;;;;;;8.60;5.10;;;;;;;7.94;71.11;98773.59;131240;1252;107478;-72
2023/01/15 15:31:11;;;;;;;9.60;5.40;;;;;;;7.92;71.18;98773.52;131329;1253;107606;-73
2023/01/15 15:34:23;;;;;;;10.50;5.00;;;;;;;7.90;71.25;98784.73;131284;1254;108742;-72